Time;durP1;ratioP1;P1;durP2;ratioP2;P2;SDS_P1;SDS_P2;PMS_P1;PMS_P2;Temp;Humidity;BMP_temperature;BMP_pressure;BME280_temperature;BME280_humidity;BME280_pressure;Samples;Min_cycle;Max_cycle;Signal;HPM_P1;HPM_P2
2022/07/15 00:02:09;;;;;;;0.30;0.30;;;18.70;99.90;;;;;;5065148;28;20185;-78
2022/07/15 00:04:35;;;;;;;0.20;0.20;;;18.70;99.90;;;;;;5066407;28;20185;-78
2022/07/15 00:07:02;;;;;;;0.20;0.20;;;18.70;99.90;;;;;;5074528;28;20204;-78
2022/07/15 00:12:12;;;;;;;1.97;0.60;;;18.50;99.90;;;;;;5062182;28;20258;-78
2022/07/15 00:14:39;;;;;;;0.50;0.50;;;18.50;99.90;;;;;;5069345;28;20638;-78
2022/07/15 00:17:06;;;;;;;0.60;0.60;;;18.40;99.90;;;;;;5072610;28;20205;-78
2022/07/15 00:19:32;;;;;;;0.33;0.33;;;18.40;99.90;;;;;;5064459;28;20189;-78
2022/07/15 00:21:57;;;;;;;0.20;0.20;;;18.40;99.90;;;;;;5069326;28;20658;-78
2022/07/15 00:24:23;;;;;;;0.20;0.20;;;18.30;99.90;;;;;;5071420;28;20239;-78
2022/07/15 00:26:48;;;;;;;1.03;0.40;;;18.40;99.90;;;;;;5069896;28;20212;-78
2022/07/15 00:29:14;;;;;;;0.20;0.20;;;18.50;99.90;;;;;;5076347;28;20270;-78
2022/07/15 00:31:39;;;;;;;0.73;0.67;;;18.50;99.90;;;;;;5069190;28;20185;-78
2022/07/15 00:34:05;;;;;;;0.80;0.27;;;18.50;99.90;;;;;;5067007;28;20856;-78
2022/07/15 00:36:30;;;;;;;0.20;0.20;;;18.50;99.90;;;;;;5073282;28;20209;-79
2022/07/15 00:38:57;;;;;;;0.40;0.40;;;18.50;99.90;;;;;;5070769;28;20331;-78
2022/07/15 00:41:23;;;;;;;0.40;0.40;;;18.40;99.90;;;;;;5069562;28;20170;-79
2022/07/15 00:43:48;;;;;;;0.30;0.30;;;18.40;99.90;;;;;;5062231;28;20194;-79
2022/07/15 00:46:21;;;;;;;0.30;0.30;;;18.30;99.90;;;;;;5067574;28;20262;-78
2022/07/15 00:48:47;;;;;;;0.20;0.20;;;18.10;99.90;;;;;;5071713;28;20274;-78
2022/07/15 00:51:12;;;;;;;0.70;0.50;;;18.20;99.90;;;;;;5071762;28;20178;-78
2022/07/15 00:53:39;;;;;;;0.20;0.20;;;17.70;99.90;;;;;;5080481;28;20748;-78
2022/07/15 00:56:08;;;;;;;2.73;0.53;;;17.40;99.90;;;;;;5068374;28;20177;-79
2022/07/15 00:58:37;;;;;;;0.30;0.30;;;17.20;99.90;;;;;;5072714;28;20213;-78
2022/07/15 01:01:03;;;;;;;0.20;0.20;;;17.20;99.90;;;;;;5075527;28;20181;-78
2022/07/15 01:03:31;;;;;;;0.40;0.33;;;17.00;99.90;;;;;;5072613;28;20658;-79
2022/07/15 01:05:57;;;;;;;0.30;0.30;;;16.90;99.90;;;;;;5072561;28;20190;-78
2022/07/15 01:08:23;;;;;;;0.33;0.33;;;16.90;99.90;;;;;;5065112;28;20276;-78
2022/07/15 01:10:50;;;;;;;0.70;0.50;;;16.80;99.90;;;;;;5067278;28;20183;-78
2022/07/15 01:13:16;;;;;;;0.87;0.87;;;16.70;99.90;;;;;;5073688;28;20652;-79
2022/07/15 01:15:42;;;;;;;0.20;0.20;;;16.70;99.90;;;;;;5078782;28;20260;-78
2022/07/15 01:18:07;;;;;;;0.50;0.20;;;16.70;99.90;;;;;;5085842;28;20205;-78
2022/07/15 01:20:33;;;;;;;0.27;0.27;;;16.80;99.90;;;;;;5092005;28;20188;-78
2022/07/15 01:22:59;;;;;;;0.13;0.13;;;16.60;99.90;;;;;;5086062;28;20177;-79
2022/07/15 01:25:26;;;;;;;0.30;0.30;;;16.60;99.90;;;;;;5082691;28;20756;-79
2022/07/15 01:27:51;;;;;;;0.10;0.10;;;16.50;99.90;;;;;;5072960;28;20292;-79
2022/07/15 01:30:17;;;;;;;0.20;0.20;;;16.40;99.90;;;;;;5072537;28;20339;-79
2022/07/15 01:32:43;;;;;;;0.27;0.27;;;16.30;99.90;;;;;;5071249;28;20184;-80
2022/07/15 01:35:08;;;;;;;0.67;0.67;;;16.30;99.90;;;;;;5072413;28;20187;-79
2022/07/15 01:37:34;;;;;;;0.40;0.40;;;16.20;99.90;;;;;;5064012;28;20212;-79
2022/07/15 01:40:00;;;;;;;0.20;0.20;;;16.20;99.90;;;;;;5066837;28;20266;-80
2022/07/15 01:42:25;;;;;;;0.30;0.30;;;16.20;99.90;;;;;;5064240;28;20681;-80
2022/07/15 01:44:51;;;;;;;0.30;0.30;;;16.20;99.90;;;;;;5066165;28;21220;-79
2022/07/15 01:47:16;;;;;;;0.43;0.43;;;16.30;99.90;;;;;;5067474;28;20271;-79
2022/07/15 01:49:42;;;;;;;0.20;0.20;;;16.40;99.90;;;;;;5063528;28;20198;-79
2022/07/15 01:52:09;;;;;;;0.30;0.30;;;16.40;99.90;;;;;;5068615;28;20595;-81
2022/07/15 01:54:35;;;;;;;0.20;0.20;;;16.40;99.90;;;;;;5065863;28;20202;-79
2022/07/15 01:57:02;;;;;;;0.27;0.27;;;16.50;99.90;;;;;;5066555;28;20238;-79
2022/07/15 01:59:27;;;;;;;0.30;0.30;;;16.50;99.90;;;;;;5072105;28;21000;-79
2022/07/15 02:01:55;;;;;;;0.27;0.27;;;16.30;99.90;;;;;;5071679;28;20189;-79
2022/07/15 02:04:21;;;;;;;0.20;0.20;;;16.20;99.90;;;;;;5067340;28;20181;-81
2022/07/15 02:06:47;;;;;;;0.30;0.30;;;16.30;99.90;;;;;;5069193;28;20185;-80
2022/07/15 02:09:13;;;;;;;0.30;0.30;;;16.30;99.90;;;;;;5070158;28;20201;-80
2022/07/15 02:11:39;;;;;;;0.20;0.20;;;16.30;99.90;;;;;;5071254;28;20181;-78
2022/07/15 02:14:05;;;;;;;0.20;0.20;;;16.40;99.90;;;;;;5065931;28;20238;-80
2022/07/15 02:16:31;;;;;;;0.43;0.43;;;16.40;99.90;;;;;;5067136;28;20179;-80
2022/07/15 02:18:57;;;;;;;0.20;0.20;;;16.60;99.90;;;;;;5064531;28;20204;-80
2022/07/15 02:21:26;;;;;;;0.40;0.40;;;16.70;99.90;;;;;;5070409;28;20184;-80
2022/07/15 02:23:52;;;;;;;0.20;0.20;;;16.50;99.90;;;;;;5070181;28;20275;-81
2022/07/15 02:26:18;;;;;;;0.23;0.23;;;16.60;99.90;;;;;;5068361;28;20212;-80
2022/07/15 02:28:44;;;;;;;0.53;0.43;;;16.70;99.90;;;;;;5066014;28;20214;-79
2022/07/15 02:31:11;;;;;;;0.30;0.30;;;16.50;99.90;;;;;;5069939;28;20174;-80
2022/07/15 02:33:37;;;;;;;0.27;0.27;;;16.40;99.90;;;;;;5069921;28;20252;-79
2022/07/15 02:36:02;;;;;;;0.40;0.40;;;16.30;99.90;;;;;;5076319;28;20306;-80
2022/07/15 02:38:28;;;;;;;0.27;0.27;;;16.20;99.90;;;;;;5062397;28;20197;-79
2022/07/15 02:40:53;;;;;;;0.67;0.47;;;16.10;99.90;;;;;;5072079;28;20199;-79
2022/07/15 02:43:19;;;;;;;0.30;0.30;;;16.00;99.90;;;;;;5070498;28;20222;-80
2022/07/15 02:45:45;;;;;;;0.20;0.20;;;16.00;99.90;;;;;;5059694;28;20673;-80
2022/07/15 02:48:10;;;;;;;0.27;0.27;;;16.00;99.90;;;;;;5073440;28;20222;-80
2022/07/15 02:50:36;;;;;;;0.40;0.40;;;16.10;99.90;;;;;;5063642;28;20191;-80
2022/07/15 02:53:03;;;;;;;0.30;0.30;;;16.00;99.90;;;;;;5064581;28;20182;-79
2022/07/15 02:55:28;;;;;;;6.03;0.30;;;15.90;99.90;;;;;;5066194;28;20231;-80
2022/07/15 02:57:54;;;;;;;0.30;0.30;;;15.80;99.90;;;;;;5062904;28;20231;-79
2022/07/15 03:00:20;;;;;;;0.33;0.33;;;15.70;99.90;;;;;;5071802;28;20184;-80
2022/07/15 03:02:49;;;;;;;0.27;0.27;;;15.70;99.90;;;;;;5063711;28;20192;-80
2022/07/15 03:05:16;;;;;;;0.30;0.30;;;15.80;99.90;;;;;;5072230;28;20185;-80
2022/07/15 03:07:41;;;;;;;0.20;0.20;;;16.00;99.90;;;;;;5065064;28;20208;-80
2022/07/15 03:10:08;;;;;;;0.30;0.30;;;16.10;99.90;;;;;;5067159;28;20204;-79
2022/07/15 03:12:34;;;;;;;0.20;0.20;;;16.10;99.90;;;;;;5063066;28;20668;-80
2022/07/15 03:15:01;;;;;;;0.60;0.60;;;16.10;99.90;;;;;;5059685;28;20259;-80
2022/07/15 03:17:26;;;;;;;0.30;0.30;;;16.00;99.90;;;;;;5068383;28;20386;-79
2022/07/15 03:19:52;;;;;;;2.20;0.50;;;16.00;99.90;;;;;;5061874;28;20192;-79
2022/07/15 03:22:18;;;;;;;0.40;0.40;;;15.90;99.90;;;;;;5064702;28;20184;-79
2022/07/15 03:24:43;;;;;;;0.27;0.20;;;15.90;99.90;;;;;;5073744;28;20250;-79
2022/07/15 03:27:09;;;;;;;0.13;0.13;;;15.90;99.90;;;;;;5059560;28;20248;-79
2022/07/15 03:29:35;;;;;;;0.40;0.40;;;15.90;99.90;;;;;;5084909;28;20222;-79
2022/07/15 03:32:01;;;;;;;0.27;0.27;;;16.00;99.90;;;;;;5068310;28;20184;-79
2022/07/15 03:34:27;;;;;;;0.30;0.30;;;16.00;99.90;;;;;;5070097;28;20235;-80
2022/07/15 03:36:54;;;;;;;0.40;0.20;;;16.00;99.90;;;;;;5060025;28;20174;-79
2022/07/15 03:39:21;;;;;;;0.60;0.60;;;16.00;99.90;;;;;;5069575;28;20641;-79
2022/07/15 03:41:46;;;;;;;0.27;0.27;;;16.00;99.90;;;;;;5062234;28;20224;-79
2022/07/15 03:44:13;;;;;;;0.20;0.20;;;16.00;99.90;;;;;;5071468;28;20221;-79
2022/07/15 03:46:39;;;;;;;0.20;0.20;;;16.00;99.90;;;;;;5063808;28;20592;-79
2022/07/15 03:49:05;;;;;;;0.20;0.20;;;16.10;99.90;;;;;;5061550;28;20197;-79
2022/07/15 03:51:31;;;;;;;0.10;0.10;;;16.20;99.90;;;;;;5060853;28;20223;-78
2022/07/15 03:53:59;;;;;;;0.20;0.20;;;16.40;99.90;;;;;;5069539;28;20445;-78
2022/07/15 03:56:24;;;;;;;0.30;0.30;;;16.40;99.90;;;;;;5066841;28;20182;-79
2022/07/15 03:58:50;;;;;;;0.23;0.23;;;16.40;99.90;;;;;;5062072;28;20278;-79
2022/07/15 04:01:16;;;;;;;0.10;0.10;;;16.50;99.90;;;;;;5068336;28;20236;-80
2022/07/15 04:03:41;;;;;;;0.20;0.20;;;16.80;99.90;;;;;;5062483;28;20194;-79
2022/07/15 04:06:07;;;;;;;0.30;0.30;;;17.10;99.90;;;;;;5061860;28;20185;-79
2022/07/15 04:08:32;;;;;;;0.20;0.20;;;17.20;99.90;;;;;;5063438;28;20296;-79
2022/07/15 04:10:58;;;;;;;0.30;0.30;;;18.00;99.90;;;;;;5066645;28;20673;-79
2022/07/15 04:13:24;;;;;;;0.40;0.40;;;18.60;99.90;;;;;;5062628;28;20283;-79
2022/07/15 04:15:49;;;;;;;0.23;0.23;;;19.00;99.90;;;;;;5067856;28;20211;-79
2022/07/15 04:18:15;;;;;;;0.87;0.40;;;19.30;99.90;;;;;;5066829;28;20663;-79
2022/07/15 04:20:40;;;;;;;0.20;0.20;;;19.20;99.90;;;;;;5066465;28;20654;-80
2022/07/15 04:23:06;;;;;;;0.30;0.30;;;18.50;99.90;;;;;;5068454;28;20249;-80
2022/07/15 04:25:31;;;;;;;0.33;0.27;;;18.10;99.90;;;;;;5064264;28;20187;-80
2022/07/15 04:27:57;;;;;;;0.10;0.10;;;17.80;99.90;;;;;;5061774;28;20200;-81
2022/07/15 04:30:23;;;;;;;0.50;0.50;;;17.60;99.90;;;;;;5058819;28;20217;-79
2022/07/15 04:32:48;;;;;;;1.17;0.67;;;17.70;99.90;;;;;;5064830;28;20231;-81
2022/07/15 04:35:14;;;;;;;0.30;0.30;;;17.70;99.90;;;;;;5059066;28;20181;-79
2022/07/15 04:37:39;;;;;;;1.03;0.20;;;17.80;99.90;;;;;;5062825;28;20205;-80
2022/07/15 04:40:09;;;;;;;0.30;0.30;;;18.00;99.90;;;;;;5062806;28;21159;-80
2022/07/15 04:42:36;;;;;;;0.30;0.30;;;18.10;99.90;;;;;;5062906;28;20178;-80
2022/07/15 04:45:01;;;;;;;0.13;0.13;;;18.10;99.90;;;;;;5064776;28;20229;-79
2022/07/15 04:47:27;;;;;;;1.40;0.30;;;18.10;99.90;;;;;;5066810;28;20772;-79
2022/07/15 04:52:43;;;;;;;0.33;0.33;;;18.30;99.90;;;;;;5054133;28;20208;-78
2022/07/15 04:55:09;;;;;;;0.30;0.30;;;18.20;99.90;;;;;;5071248;28;20710;-78
2022/07/15 04:57:34;;;;;;;0.97;0.43;;;18.10;99.90;;;;;;5055405;28;20233;-79
2022/07/15 05:00:00;;;;;;;1.30;0.43;;;17.90;99.90;;;;;;5068483;28;20271;-80
2022/07/15 05:02:25;;;;;;;0.40;0.40;;;17.70;99.90;;;;;;5060889;28;20182;-80
2022/07/15 05:04:51;;;;;;;0.30;0.30;;;17.60;99.90;;;;;;5060539;28;20268;-78
2022/07/15 05:07:17;;;;;;;0.20;0.20;;;17.40;99.90;;;;;;5060938;28;20224;-79
2022/07/15 05:09:42;;;;;;;0.30;0.30;;;17.30;99.90;;;;;;5069632;28;20208;-79
2022/07/15 05:12:08;;;;;;;0.43;0.43;;;17.40;99.90;;;;;;5069746;28;20184;-79
2022/07/15 05:14:33;;;;;;;0.30;0.30;;;17.20;99.90;;;;;;5066118;28;20260;-81
2022/07/15 05:17:00;;;;;;;0.20;0.20;;;17.10;99.90;;;;;;5071223;28;20295;-79
2022/07/15 05:19:25;;;;;;;2.00;0.77;;;17.30;99.90;;;;;;5059821;28;20255;-79
2022/07/15 05:21:51;;;;;;;1.20;0.70;;;17.30;99.90;;;;;;5068495;28;20427;-79
2022/07/15 05:24:18;;;;;;;0.30;0.30;;;17.30;99.90;;;;;;5065100;28;20677;-78
2022/07/15 05:26:44;;;;;;;0.40;0.40;;;17.20;99.90;;;;;;5065282;28;20189;-79
2022/07/15 05:29:10;;;;;;;0.37;0.37;;;17.40;99.90;;;;;;5065758;28;20201;-79
2022/07/15 05:31:35;;;;;;;0.33;0.33;;;17.60;99.90;;;;;;5066648;28;20178;-79
2022/07/15 05:34:01;;;;;;;0.73;0.73;;;17.60;99.90;;;;;;5073033;28;20165;-80
2022/07/15 05:36:27;;;;;;;0.20;0.20;;;17.50;99.90;;;;;;5058738;28;20184;-80
2022/07/15 05:38:53;;;;;;;0.50;0.50;;;17.70;99.90;;;;;;5064202;28;20245;-79
2022/07/15 05:41:19;;;;;;;0.50;0.50;;;17.90;99.90;;;;;;5071765;28;20177;-79
2022/07/15 05:43:44;;;;;;;0.30;0.30;;;17.70;99.90;;;;;;5078342;28;20233;-79
2022/07/15 05:46:11;;;;;;;0.57;0.40;;;17.50;99.90;;;;;;5071397;28;20173;-79
2022/07/15 05:48:39;;;;;;;1.83;0.53;;;17.40;99.90;;;;;;5065670;28;20221;-78
2022/07/15 05:51:05;;;;;;;0.30;0.30;;;17.30;99.90;;;;;;5068598;28;20241;-79
2022/07/15 05:53:31;;;;;;;0.30;0.30;;;17.40;99.90;;;;;;5068191;28;20174;-79
2022/07/15 05:55:57;;;;;;;0.30;0.30;;;17.40;99.90;;;;;;5065452;28;20457;-79
2022/07/15 05:58:23;;;;;;;0.30;0.30;;;17.50;99.90;;;;;;5056235;28;20220;-79
2022/07/15 06:00:50;;;;;;;0.30;0.30;;;17.50;99.90;;;;;;5062937;28;20722;-80
2022/07/15 06:03:16;;;;;;;0.20;0.20;;;17.80;99.90;;;;;;5068257;28;20248;-79
2022/07/15 06:05:42;;;;;;;0.20;0.20;;;17.80;99.90;;;;;;5062286;28;20264;-81
2022/07/15 06:08:08;;;;;;;0.30;0.30;;;18.30;99.90;;;;;;5061966;28;20694;-79
2022/07/15 06:10:33;;;;;;;0.30;0.30;;;18.70;99.90;;;;;;5062380;28;20205;-80
2022/07/15 06:12:59;;;;;;;2.37;0.40;;;19.00;99.90;;;;;;5070057;28;20212;-81
2022/07/15 06:15:25;;;;;;;0.30;0.30;;;19.00;99.90;;;;;;5062266;28;20223;-80
2022/07/15 06:17:51;;;;;;;0.40;0.40;;;18.60;99.90;;;;;;5071920;28;20201;-80
2022/07/15 06:20:17;;;;;;;0.70;0.70;;;19.20;99.90;;;;;;5059113;28;20193;-79
2022/07/15 06:22:43;;;;;;;0.60;0.60;;;19.20;99.90;;;;;;5068936;28;20194;-80
2022/07/15 06:25:08;;;;;;;0.30;0.30;;;19.40;99.90;;;;;;5065665;28;20268;-80
2022/07/15 06:27:35;;;;;;;0.20;0.20;;;19.30;99.90;;;;;;5066014;28;20311;-79
2022/07/15 06:30:00;;;;;;;0.40;0.40;;;19.20;99.90;;;;;;5071698;28;21022;-80
2022/07/15 06:32:26;;;;;;;0.23;0.23;;;19.10;99.90;;;;;;5066637;28;20268;-80
2022/07/15 06:34:51;;;;;;;0.20;0.20;;;18.90;99.90;;;;;;5062730;28;20191;-80
2022/07/15 06:37:17;;;;;;;0.20;0.20;;;18.80;99.90;;;;;;5063324;28;20295;-79
2022/07/15 06:39:43;;;;;;;0.50;0.50;;;19.10;99.90;;;;;;5066266;28;20268;-80
2022/07/15 06:42:10;;;;;;;0.90;0.90;;;19.30;99.90;;;;;;5068430;28;20189;-80
2022/07/15 06:44:35;;;;;;;0.40;0.40;;;19.70;99.90;;;;;;5072405;28;20276;-81
2022/07/15 06:47:02;;;;;;;0.30;0.30;;;19.60;99.90;;;;;;5070678;28;20301;-80
2022/07/15 06:49:28;;;;;;;0.30;0.30;;;19.90;99.90;;;;;;5078706;28;20289;-79
2022/07/15 06:51:54;;;;;;;0.43;0.40;;;20.10;99.90;;;;;;5065041;28;22279;-81
2022/07/15 06:54:20;;;;;;;0.30;0.30;;;19.80;99.90;;;;;;5066770;28;20687;-81
2022/07/15 06:56:46;;;;;;;0.47;0.47;;;19.90;99.90;;;;;;5060519;28;20261;-80
2022/07/15 06:59:11;;;;;;;0.20;0.20;;;19.60;99.90;;;;;;5071831;28;20307;-79
2022/07/15 07:01:37;;;;;;;0.20;0.20;;;19.50;99.90;;;;;;5065839;28;20564;-81
2022/07/15 07:04:03;;;;;;;0.30;0.30;;;19.60;99.90;;;;;;5064092;28;20183;-80
2022/07/15 07:06:28;;;;;;;0.27;0.27;;;19.70;99.90;;;;;;5056596;28;20246;-81
2022/07/15 07:08:54;;;;;;;1.73;0.70;;;19.50;99.90;;;;;;5062661;28;20630;-80
2022/07/15 07:11:20;;;;;;;0.30;0.30;;;19.90;99.90;;;;;;5059117;28;20177;-81
2022/07/15 07:13:46;;;;;;;0.30;0.30;;;20.10;99.90;;;;;;5063352;28;20267;-79
2022/07/15 07:16:12;;;;;;;0.30;0.30;;;20.10;99.90;;;;;;5075251;28;20173;-80
2022/07/15 07:18:38;;;;;;;0.33;0.33;;;20.00;99.90;;;;;;5075148;28;20231;-80
2022/07/15 07:21:04;;;;;;;0.20;0.20;;;20.00;99.90;;;;;;5074235;28;20184;-80
2022/07/15 07:23:30;;;;;;;0.20;0.20;;;20.50;99.90;;;;;;5066269;28;20674;-80
2022/07/15 07:25:57;;;;;;;0.40;0.40;;;20.50;99.90;;;;;;5070120;28;20185;-80
2022/07/15 07:28:22;;;;;;;0.30;0.30;;;20.60;99.90;;;;;;5068853;28;20284;-81
2022/07/15 07:30:50;;;;;;;0.20;0.20;;;20.30;99.90;;;;;;5074714;28;20235;-81
2022/07/15 07:33:16;;;;;;;0.30;0.30;;;20.60;99.90;;;;;;5072779;28;20188;-80
2022/07/15 07:35:43;;;;;;;0.13;0.13;;;20.40;99.90;;;;;;5069547;28;20185;-80
2022/07/15 07:38:09;;;;;;;0.33;0.33;;;20.70;99.90;;;;;;5077975;28;20193;-80
2022/07/15 07:40:34;;;;;;;0.40;0.30;;;20.70;99.90;;;;;;5067024;28;20269;-79
2022/07/15 07:43:00;;;;;;;0.40;0.40;;;21.00;99.90;;;;;;5066594;28;20238;-80
2022/07/15 07:45:28;;;;;;;0.40;0.40;;;20.90;99.90;;;;;;5066887;28;20197;-80
2022/07/15 07:47:54;;;;;;;1.13;0.50;;;21.30;99.90;;;;;;5063207;28;20220;-80
2022/07/15 07:50:21;;;;;;;0.50;0.50;;;20.80;99.90;;;;;;5072059;28;20231;-81
2022/07/15 07:52:46;;;;;;;0.93;0.33;;;20.70;99.90;;;;;;5065728;28;20822;-80
2022/07/15 07:55:12;;;;;;;0.20;0.20;;;21.30;99.90;;;;;;5068413;28;20185;-80
2022/07/15 07:57:53;;;;;;;1.30;0.50;;;21.70;99.90;;;;;;5061618;28;20679;-80
2022/07/15 08:00:19;;;;;;;2.37;0.70;;;21.40;99.90;;;;;;5069425;28;20180;-81
2022/07/15 08:02:46;;;;;;;0.70;0.50;;;21.10;99.90;;;;;;5079879;28;20186;-80
2022/07/15 08:05:12;;;;;;;0.73;0.30;;;21.40;99.90;;;;;;5067268;28;20185;-81
2022/07/15 08:07:38;;;;;;;0.40;0.40;;;21.10;99.90;;;;;;5075455;28;20573;-80
2022/07/15 08:10:05;;;;;;;0.60;0.60;;;21.10;99.90;;;;;;5085209;28;20196;-80
2022/07/15 08:12:30;;;;;;;0.20;0.20;;;21.40;99.90;;;;;;5080145;28;20188;-80
2022/07/15 08:14:56;;;;;;;0.27;0.27;;;21.50;99.90;;;;;;5083368;28;20184;-80
2022/07/15 08:17:22;;;;;;;0.60;0.60;;;21.60;99.90;;;;;;5070622;28;20288;-80
2022/07/15 08:19:48;;;;;;;0.53;0.53;;;21.50;99.90;;;;;;5078531;28;20188;-80
2022/07/15 08:22:14;;;;;;;3.53;0.87;;;21.30;99.90;;;;;;5073640;28;20661;-81
2022/07/15 08:24:40;;;;;;;0.67;0.67;;;21.60;99.90;;;;;;5080086;28;20176;-81
2022/07/15 08:27:06;;;;;;;0.67;0.50;;;21.60;99.90;;;;;;5083192;28;20245;-83
2022/07/15 08:29:32;;;;;;;0.60;0.60;;;22.10;99.90;;;;;;5075106;28;20209;-81
2022/07/15 08:31:57;;;;;;;0.67;0.53;;;22.30;99.90;;;;;;5075002;28;20185;-81
2022/07/15 08:34:23;;;;;;;0.50;0.47;;;21.50;99.90;;;;;;5072202;28;20177;-81
2022/07/15 08:36:49;;;;;;;0.93;0.60;;;21.20;99.90;;;;;;5064157;28;20185;-81
2022/07/15 08:39:15;;;;;;;0.50;0.50;;;21.70;99.90;;;;;;5074105;28;20184;-81
2022/07/15 08:41:41;;;;;;;1.33;0.60;;;21.30;99.90;;;;;;5072384;28;20545;-81
2022/07/15 08:44:07;;;;;;;0.67;0.67;;;21.90;99.90;;;;;;5073254;28;21005;-80
2022/07/15 08:46:34;;;;;;;2.97;0.60;;;21.70;99.90;;;;;;5074631;28;20639;-80
2022/07/15 08:49:12;;;;;;;0.47;0.47;;;21.90;99.90;;;;;;5074541;28;20229;-81
2022/07/15 08:51:43;;;;;;;0.47;0.40;;;21.70;99.90;;;;;;5077538;28;20184;-81
2022/07/15 08:54:09;;;;;;;0.40;0.40;;;21.50;99.90;;;;;;5073882;28;20705;-80
2022/07/15 08:56:35;;;;;;;0.30;0.30;;;21.30;99.90;;;;;;5074555;28;20185;-81
2022/07/15 08:59:01;;;;;;;0.40;0.40;;;21.60;99.90;;;;;;5067153;28;20213;-80
2022/07/15 09:01:29;;;;;;;0.77;0.77;;;21.70;99.90;;;;;;5063854;28;20184;-79
2022/07/15 09:03:54;;;;;;;0.30;0.30;;;22.20;99.90;;;;;;5060278;28;20190;-80
2022/07/15 09:06:34;;;;;;;0.80;0.63;;;22.70;99.90;;;;;;5061541;28;20212;-79
2022/07/15 09:09:24;;;;;;;0.47;0.43;;;22.30;99.90;;;;;;5071436;28;20704;-83
2022/07/15 09:12:02;;;;;;;0.50;0.50;;;21.50;99.90;;;;;;5057896;28;20189;-80
2022/07/15 09:14:29;;;;;;;1.23;0.60;;;21.20;99.90;;;;;;5074090;28;20245;-80
2022/07/15 09:17:10;;;;;;;0.30;0.30;;;21.10;99.90;;;;;;5067590;28;20183;-80
2022/07/15 09:19:55;;;;;;;1.13;1.13;;;20.40;99.90;;;;;;5073168;28;20263;-80
2022/07/15 09:22:21;;;;;;;0.27;0.27;;;20.70;99.90;;;;;;5063611;28;20205;-80
2022/07/15 09:25:05;;;;;;;0.40;0.40;;;21.10;99.90;;;;;;5077519;28;20181;-80
2022/07/15 09:27:39;;;;;;;0.37;0.37;;;21.30;99.90;;;;;;5065415;28;20205;-79
2022/07/15 09:36:02;;;;;;;0.40;0.40;;;22.30;99.90;;;;;;5073294;28;20556;-81
2022/07/15 09:38:31;;;;;;;0.60;0.47;;;22.10;99.90;;;;;;5070571;28;20197;-80
2022/07/15 09:40:56;;;;;;;0.50;0.50;;;22.20;99.90;;;;;;5068289;28;20186;-80
2022/07/15 09:43:22;;;;;;;0.30;0.30;;;22.50;99.90;;;;;;5070510;28;20191;-80
2022/07/15 09:45:56;;;;;;;0.50;0.50;;;22.10;99.90;;;;;;5074883;28;20246;-80
2022/07/15 09:48:21;;;;;;;0.50;0.50;;;22.40;99.90;;;;;;5077091;28;20574;-80
2022/07/15 09:50:48;;;;;;;0.47;0.47;;;22.10;99.90;;;;;;5063394;28;20189;-80
2022/07/15 09:53:14;;;;;;;0.40;0.40;;;22.10;99.90;;;;;;5069295;28;20186;-81
2022/07/15 09:55:40;;;;;;;0.30;0.30;;;22.40;99.90;;;;;;5069489;28;20280;-81
2022/07/15 09:58:08;;;;;;;0.50;0.50;;;22.80;99.90;;;;;;5067308;28;20197;-80
2022/07/15 10:00:34;;;;;;;0.53;0.40;;;22.80;99.90;;;;;;5070191;28;20741;-80
2022/07/15 10:03:01;;;;;;;0.63;0.63;;;23.10;99.90;;;;;;5072218;28;20200;-81
2022/07/15 10:05:27;;;;;;;1.00;0.50;;;23.20;99.90;;;;;;5068260;28;20671;-80
2022/07/15 10:07:56;;;;;;;0.43;0.43;;;23.50;99.90;;;;;;5071638;28;20320;-80
2022/07/15 10:10:22;;;;;;;1.17;0.50;;;23.70;99.90;;;;;;5073066;28;20233;-80
2022/07/15 10:13:25;;;;;;;0.60;0.50;;;23.30;99.90;;;;;;5074071;28;20247;-79
2022/07/15 10:16:03;;;;;;;0.30;0.30;;;23.00;99.90;;;;;;5068087;28;20696;-80
2022/07/15 10:18:46;;;;;;;0.37;0.37;;;22.70;99.90;;;;;;5069688;28;20227;-80
2022/07/15 10:21:35;;;;;;;0.40;0.40;;;22.60;99.90;;;;;;5075895;28;20217;-79
2022/07/15 10:24:33;;;;;;;0.40;0.40;;;22.80;99.90;;;;;;5068922;28;20209;-80
2022/07/15 10:27:26;;;;;;;1.50;0.73;;;22.90;99.90;;;;;;5075819;28;20188;-80
2022/07/15 10:29:53;;;;;;;0.30;0.30;;;23.10;99.90;;;;;;5072361;28;20590;-81
2022/07/15 10:32:19;;;;;;;0.43;0.20;;;23.50;99.90;;;;;;5073484;28;20178;-80
2022/07/15 10:34:45;;;;;;;0.30;0.30;;;23.50;99.90;;;;;;5078671;28;20203;-80
2022/07/15 10:37:12;;;;;;;0.57;0.53;;;23.80;99.90;;;;;;5075551;28;20197;-80
2022/07/15 10:39:50;;;;;;;0.73;0.73;;;23.30;99.90;;;;;;5076653;28;20198;-80
2022/07/15 10:42:16;;;;;;;0.30;0.30;;;22.90;99.90;;;;;;5071109;28;20185;-80
2022/07/15 10:44:58;;;;;;;0.20;0.20;;;22.70;99.90;;;;;;5076772;28;20190;-83
2022/07/15 10:47:23;;;;;;;0.20;0.20;;;23.30;99.90;;;;;;5076622;28;20217;-80
2022/07/15 10:49:50;;;;;;;0.50;0.43;;;24.30;99.90;;;;;;5075075;28;20224;-80
2022/07/15 10:52:18;;;;;;;0.83;0.70;;;24.50;99.90;;;;;;5063264;28;20196;-81
2022/07/15 10:54:54;;;;;;;1.67;0.87;;;24.30;99.90;;;;;;5070298;28;20392;-80
2022/07/15 10:57:40;;;;;;;0.53;0.50;;;24.30;99.90;;;;;;5074593;28;20698;-79
2022/07/15 11:00:32;;;;;;;0.47;0.47;;;24.10;99.90;;;;;;5063640;28;20275;-80
2022/07/15 11:03:13;;;;;;;0.43;0.43;;;24.00;99.90;;;;;;5073859;28;20189;-80
2022/07/15 11:05:46;;;;;;;0.20;0.20;;;24.00;99.90;;;;;;5069476;28;20208;-80
2022/07/15 11:08:31;;;;;;;0.30;0.30;;;24.30;99.90;;;;;;5074272;28;20212;-80
2022/07/15 11:10:56;;;;;;;0.40;0.40;;;25.10;99.90;;;;;;5069352;28;20263;-81
2022/07/15 11:13:33;;;;;;;0.43;0.43;;;24.80;99.90;;;;;;5074402;28;20212;-80
2022/07/15 11:15:59;;;;;;;0.37;0.37;;;24.20;99.90;;;;;;5071523;28;20191;-80
2022/07/15 11:18:25;;;;;;;0.50;0.50;;;24.10;99.90;;;;;;5069196;28;20204;-82
2022/07/15 11:20:51;;;;;;;0.40;0.40;;;23.90;99.90;;;;;;5072211;28;20192;-80
2022/07/15 11:23:20;;;;;;;0.60;0.40;;;23.90;99.90;;;;;;5070986;28;20189;-80
2022/07/15 11:25:47;;;;;;;0.73;0.37;;;23.60;99.90;;;;;;5068325;28;20205;-80
2022/07/15 11:28:14;;;;;;;0.47;0.40;;;23.60;99.90;;;;;;5072913;28;20207;-80
2022/07/15 11:30:40;;;;;;;0.40;0.40;;;23.90;99.90;;;;;;5072717;28;20204;-82
2022/07/15 11:33:09;;;;;;;0.57;0.57;;;24.00;99.90;;;;;;5069992;28;20565;-80
2022/07/15 11:35:53;;;;;;;0.50;0.50;;;24.10;99.90;;;;;;5068620;28;20174;-80
2022/07/15 11:38:22;;;;;;;0.70;0.60;;;24.10;99.90;;;;;;5067030;28;20272;-80
2022/07/15 11:46:44;;;;;;;0.40;0.40;;;25.20;99.90;;;;;;5026589;28;20189;-80
2022/07/15 11:49:10;;;;;;;0.30;0.30;;;25.30;99.90;;;;;;5029384;28;20264;-80
2022/07/15 11:51:36;;;;;;;3.30;0.70;;;26.00;99.90;;;;;;5041716;28;20202;-80
2022/07/15 11:54:02;;;;;;;0.40;0.40;;;25.90;99.90;;;;;;5084772;28;20265;-82
2022/07/15 11:56:28;;;;;;;0.30;0.30;;;26.10;99.90;;;;;;5062176;28;20272;-81
2022/07/15 11:58:56;;;;;;;0.67;0.50;;;25.00;99.90;;;;;;5061185;28;20224;-83
2022/07/15 12:01:28;;;;;;;0.40;0.40;;;25.10;99.90;;;;;;5069190;28;20186;-82
2022/07/15 12:03:55;;;;;;;0.60;0.60;;;25.00;99.90;;;;;;5072460;28;20192;-82
2022/07/15 12:06:28;;;;;;;0.50;0.50;;;24.80;99.90;;;;;;5065911;28;20193;-79
2022/07/15 12:08:57;;;;;;;0.37;0.37;;;24.70;99.90;;;;;;5065974;28;20834;-80
2022/07/15 12:11:25;;;;;;;0.40;0.30;;;24.50;99.90;;;;;;5067645;28;20177;-79
2022/07/15 12:14:09;;;;;;;0.40;0.30;;;24.50;99.90;;;;;;5066712;28;20200;-82
2022/07/15 12:16:41;;;;;;;1.00;0.57;;;24.20;99.90;;;;;;5067920;28;20176;-82
2022/07/15 12:19:07;;;;;;;0.77;0.60;;;24.10;99.90;;;;;;5076028;28;20265;-82
2022/07/15 12:21:35;;;;;;;0.37;0.37;;;24.10;99.90;;;;;;5077990;28;20181;-82
2022/07/15 12:24:06;;;;;;;0.37;0.37;;;24.30;99.90;;;;;;5076244;28;20188;-82
2022/07/15 12:26:38;;;;;;;0.50;0.47;;;24.60;99.90;;;;;;5091283;28;20176;-82
2022/07/15 12:29:05;;;;;;;0.37;0.37;;;24.40;99.90;;;;;;5076261;28;20617;-82
2022/07/15 12:31:33;;;;;;;1.67;1.03;;;24.30;99.90;;;;;;5090659;28;20176;-82
2022/07/15 12:33:59;;;;;;;0.40;0.40;;;24.10;99.90;;;;;;5088218;28;20180;-82
2022/07/15 12:36:28;;;;;;;0.40;0.40;;;24.50;99.90;;;;;;5082517;28;20180;-82
2022/07/15 12:39:13;;;;;;;0.90;0.83;;;25.10;99.90;;;;;;5082465;28;20207;-81
2022/07/15 12:41:41;;;;;;;0.43;0.30;;;24.80;99.90;;;;;;5091199;28;20180;-82
2022/07/15 12:44:07;;;;;;;1.23;0.50;;;25.20;99.90;;;;;;5084469;28;20179;-82
2022/07/15 12:46:57;;;;;;;0.33;0.33;;;25.50;99.90;;;;;;5091280;28;20206;-82
2022/07/15 12:49:47;;;;;;;0.40;0.40;;;25.40;99.90;;;;;;5088363;28;20230;-82
2022/07/15 12:52:18;;;;;;;0.50;0.50;;;25.00;99.90;;;;;;5080719;28;20172;-82
2022/07/15 12:54:44;;;;;;;1.30;0.57;;;25.00;99.90;;;;;;5084134;28;20247;-82
2022/07/15 12:57:23;;;;;;;0.40;0.40;;;24.70;99.90;;;;;;5077148;28;20704;-82
2022/07/15 12:59:53;;;;;;;0.30;0.30;;;24.80;99.90;;;;;;5088442;28;20176;-82
2022/07/15 13:02:19;;;;;;;0.63;0.57;;;24.70;99.90;;;;;;5090554;28;20181;-80
2022/07/15 13:04:45;;;;;;;0.30;0.30;;;24.90;99.90;;;;;;5085670;28;20192;-80
2022/07/15 13:07:10;;;;;;;1.37;0.87;;;25.60;99.90;;;;;;5088908;28;20269;-81
2022/07/15 13:09:36;;;;;;;0.70;0.67;;;25.30;99.90;;;;;;5086629;28;20239;-79